sensor_id;sensor_type;location;lat;lon;timestamp;P1;durP1;ratioP1;P2;durP2;ratioP2
68188;SDS011;66299;47.514;19.218;2024-03-08T00:01:46;48.05;;;28.35;;
68188;SDS011;66299;47.514;19.218;2024-03-08T00:04:16;53.92;;;28.00;;
68188;SDS011;66299;47.514;19.218;2024-03-08T00:06:44;53.78;;;29.83;;
68188;SDS011;66299;47.514;19.218;2024-03-08T00:09:13;56.67;;;29.60;;
68188;SDS011;66299;47.514;19.218;2024-03-08T00:11:42;60.17;;;31.65;;
68188;SDS011;66299;47.514;19.218;2024-03-08T00:14:11;56.90;;;31.13;;
68188;SDS011;66299;47.514;19.218;2024-03-08T00:16:39;57.55;;;30.55;;
68188;SDS011;66299;47.514;19.218;2024-03-08T00:19:10;49.63;;;28.58;;
68188;SDS011;66299;47.514;19.218;2024-03-08T00:21:40;48.92;;;27.85;;
68188;SDS011;66299;47.514;19.218;2024-03-08T00:24:10;52.45;;;28.65;;
68188;SDS011;66299;47.514;19.218;2024-03-08T00:26:39;49.42;;;27.40;;
68188;SDS011;66299;47.514;19.218;2024-03-08T00:29:08;51.47;;;28.05;;
68188;SDS011;66299;47.514;19.218;2024-03-08T00:31:37;53.45;;;29.67;;
68188;SDS011;66299;47.514;19.218;2024-03-08T00:34:06;57.35;;;30.73;;
68188;SDS011;66299;47.514;19.218;2024-03-08T00:36:34;57.83;;;31.63;;
68188;SDS011;66299;47.514;19.218;2024-03-08T00:39:04;57.45;;;31.23;;
68188;SDS011;66299;47.514;19.218;2024-03-08T00:41:33;58.07;;;31.33;;
68188;SDS011;66299;47.514;19.218;2024-03-08T00:44:03;64.15;;;33.42;;
68188;SDS011;66299;47.514;19.218;2024-03-08T00:46:32;61.80;;;32.78;;
68188;SDS011;66299;47.514;19.218;2024-03-08T00:49:01;61.58;;;33.20;;
68188;SDS011;66299;47.514;19.218;2024-03-08T00:51:30;61.40;;;32.65;;
68188;SDS011;66299;47.514;19.218;2024-03-08T00:54:00;64.38;;;33.35;;
68188;SDS011;66299;47.514;19.218;2024-03-08T00:56:30;58.63;;;32.50;;
68188;SDS011;66299;47.514;19.218;2024-03-08T00:59:01;62.75;;;33.78;;
68188;SDS011;66299;47.514;19.218;2024-03-08T01:01:30;64.80;;;33.60;;
68188;SDS011;66299;47.514;19.218;2024-03-08T01:03:59;63.92;;;34.17;;
68188;SDS011;66299;47.514;19.218;2024-03-08T01:06:28;67.00;;;35.05;;
68188;SDS011;66299;47.514;19.218;2024-03-08T01:08:57;66.18;;;34.65;;
68188;SDS011;66299;47.514;19.218;2024-03-08T01:11:25;63.85;;;34.85;;
68188;SDS011;66299;47.514;19.218;2024-03-08T01:13:57;65.45;;;34.78;;
68188;SDS011;66299;47.514;19.218;2024-03-08T01:16:26;62.75;;;34.58;;
68188;SDS011;66299;47.514;19.218;2024-03-08T01:18:54;69.30;;;35.72;;
68188;SDS011;66299;47.514;19.218;2024-03-08T01:21:23;67.38;;;35.88;;
68188;SDS011;66299;47.514;19.218;2024-03-08T01:23:51;67.75;;;35.50;;
68188;SDS011;66299;47.514;19.218;2024-03-08T01:26:20;66.53;;;35.78;;
68188;SDS011;66299;47.514;19.218;2024-03-08T01:28:50;69.18;;;36.22;;
68188;SDS011;66299;47.514;19.218;2024-03-08T01:31:20;74.30;;;36.65;;
68188;SDS011;66299;47.514;19.218;2024-03-08T01:33:48;74.07;;;36.85;;
68188;SDS011;66299;47.514;19.218;2024-03-08T01:36:17;69.20;;;36.97;;
68188;SDS011;66299;47.514;19.218;2024-03-08T01:38:46;71.72;;;36.75;;
68188;SDS011;66299;47.514;19.218;2024-03-08T01:41:15;73.78;;;37.90;;
68188;SDS011;66299;47.514;19.218;2024-03-08T01:43:44;69.88;;;37.35;;
68188;SDS011;66299;47.514;19.218;2024-03-08T01:46:13;70.07;;;36.53;;
68188;SDS011;66299;47.514;19.218;2024-03-08T01:48:48;71.65;;;37.05;;
68188;SDS011;66299;47.514;19.218;2024-03-08T01:51:18;71.60;;;36.90;;
68188;SDS011;66299;47.514;19.218;2024-03-08T01:53:47;73.32;;;37.88;;
68188;SDS011;66299;47.514;19.218;2024-03-08T01:56:16;72.40;;;36.65;;
68188;SDS011;66299;47.514;19.218;2024-03-08T01:58:48;76.35;;;38.25;;
68188;SDS011;66299;47.514;19.218;2024-03-08T02:01:17;72.50;;;37.65;;
68188;SDS011;66299;47.514;19.218;2024-03-08T02:03:47;68.90;;;36.60;;
68188;SDS011;66299;47.514;19.218;2024-03-08T02:06:17;72.68;;;37.42;;
68188;SDS011;66299;47.514;19.218;2024-03-08T02:08:46;71.53;;;36.47;;
68188;SDS011;66299;47.514;19.218;2024-03-08T02:11:15;77.05;;;38.80;;
68188;SDS011;66299;47.514;19.218;2024-03-08T02:13:44;67.97;;;36.50;;
68188;SDS011;66299;47.514;19.218;2024-03-08T02:16:19;77.15;;;38.28;;
68188;SDS011;66299;47.514;19.218;2024-03-08T02:18:51;74.53;;;38.40;;
68188;SDS011;66299;47.514;19.218;2024-03-08T02:21:21;75.47;;;38.67;;
68188;SDS011;66299;47.514;19.218;2024-03-08T02:23:50;73.22;;;38.58;;
68188;SDS011;66299;47.514;19.218;2024-03-08T02:26:21;75.35;;;38.35;;
68188;SDS011;66299;47.514;19.218;2024-03-08T02:28:50;69.05;;;37.58;;
68188;SDS011;66299;47.514;19.218;2024-03-08T02:31:19;74.40;;;38.08;;
68188;SDS011;66299;47.514;19.218;2024-03-08T02:33:49;71.07;;;37.83;;
68188;SDS011;66299;47.514;19.218;2024-03-08T02:36:18;70.50;;;37.28;;
68188;SDS011;66299;47.514;19.218;2024-03-08T02:38:48;76.53;;;38.92;;
68188;SDS011;66299;47.514;19.218;2024-03-08T02:41:17;77.57;;;38.22;;
68188;SDS011;66299;47.514;19.218;2024-03-08T02:43:45;74.05;;;39.15;;
68188;SDS011;66299;47.514;19.218;2024-03-08T02:46:14;78.65;;;39.80;;
68188;SDS011;66299;47.514;19.218;2024-03-08T02:48:43;77.03;;;38.75;;
68188;SDS011;66299;47.514;19.218;2024-03-08T02:51:12;74.50;;;38.30;;
68188;SDS011;66299;47.514;19.218;2024-03-08T02:53:41;75.80;;;37.95;;
68188;SDS011;66299;47.514;19.218;2024-03-08T02:56:11;77.05;;;38.05;;
68188;SDS011;66299;47.514;19.218;2024-03-08T02:58:43;74.30;;;38.22;;
68188;SDS011;66299;47.514;19.218;2024-03-08T03:01:15;70.35;;;37.42;;
68188;SDS011;66299;47.514;19.218;2024-03-08T03:03:44;75.88;;;39.53;;
68188;SDS011;66299;47.514;19.218;2024-03-08T03:06:14;73.60;;;37.58;;
68188;SDS011;66299;47.514;19.218;2024-03-08T03:08:42;73.45;;;37.92;;
68188;SDS011;66299;47.514;19.218;2024-03-08T03:11:14;74.50;;;36.97;;
68188;SDS011;66299;47.514;19.218;2024-03-08T03:13:44;72.35;;;38.25;;
68188;SDS011;66299;47.514;19.218;2024-03-08T03:16:18;71.75;;;36.15;;
68188;SDS011;66299;47.514;19.218;2024-03-08T03:18:47;71.57;;;37.30;;
68188;SDS011;66299;47.514;19.218;2024-03-08T03:21:16;74.25;;;37.65;;
68188;SDS011;66299;47.514;19.218;2024-03-08T03:23:45;76.20;;;39.58;;
68188;SDS011;66299;47.514;19.218;2024-03-08T03:26:16;72.18;;;38.28;;
68188;SDS011;66299;47.514;19.218;2024-03-08T03:28:45;75.65;;;39.00;;
68188;SDS011;66299;47.514;19.218;2024-03-08T03:31:15;72.43;;;38.53;;
68188;SDS011;66299;47.514;19.218;2024-03-08T03:33:45;74.80;;;37.63;;
68188;SDS011;66299;47.514;19.218;2024-03-08T03:36:14;72.53;;;37.38;;
68188;SDS011;66299;47.514;19.218;2024-03-08T03:38:43;73.68;;;36.78;;
68188;SDS011;66299;47.514;19.218;2024-03-08T03:41:13;71.28;;;37.28;;
68188;SDS011;66299;47.514;19.218;2024-03-08T03:43:43;71.18;;;37.70;;
68188;SDS011;66299;47.514;19.218;2024-03-08T03:46:11;72.53;;;37.88;;
68188;SDS011;66299;47.514;19.218;2024-03-08T03:48:40;71.63;;;37.58;;
68188;SDS011;66299;47.514;19.218;2024-03-08T03:51:10;67.00;;;36.97;;
68188;SDS011;66299;47.514;19.218;2024-03-08T03:53:39;75.75;;;38.05;;
68188;SDS011;66299;47.514;19.218;2024-03-08T03:56:07;72.38;;;37.95;;
68188;SDS011;66299;47.514;19.218;2024-03-08T03:58:37;72.85;;;37.80;;
68188;SDS011;66299;47.514;19.218;2024-03-08T04:01:09;72.25;;;37.50;;
68188;SDS011;66299;47.514;19.218;2024-03-08T04:03:37;70.95;;;38.15;;
68188;SDS011;66299;47.514;19.218;2024-03-08T04:06:09;71.07;;;38.28;;
68188;SDS011;66299;47.514;19.218;2024-03-08T04:08:38;69.32;;;37.28;;
68188;SDS011;66299;47.514;19.218;2024-03-08T04:11:08;71.65;;;36.97;;
68188;SDS011;66299;47.514;19.218;2024-03-08T04:13:37;72.03;;;37.75;;
68188;SDS011;66299;47.514;19.218;2024-03-08T04:16:07;71.25;;;37.60;;
68188;SDS011;66299;47.514;19.218;2024-03-08T04:18:38;77.82;;;38.47;;
68188;SDS011;66299;47.514;19.218;2024-03-08T04:21:07;69.03;;;36.25;;
68188;SDS011;66299;47.514;19.218;2024-03-08T04:23:35;73.43;;;37.50;;
68188;SDS011;66299;47.514;19.218;2024-03-08T04:26:04;74.63;;;38.20;;
68188;SDS011;66299;47.514;19.218;2024-03-08T04:28:33;70.13;;;36.83;;
68188;SDS011;66299;47.514;19.218;2024-03-08T04:31:03;75.38;;;38.40;;
68188;SDS011;66299;47.514;19.218;2024-03-08T04:33:34;72.65;;;37.83;;
68188;SDS011;66299;47.514;19.218;2024-03-08T04:36:03;76.78;;;38.17;;
68188;SDS011;66299;47.514;19.218;2024-03-08T04:38:32;74.43;;;38.58;;
68188;SDS011;66299;47.514;19.218;2024-03-08T04:41:01;69.00;;;37.58;;
68188;SDS011;66299;47.514;19.218;2024-03-08T04:43:30;71.18;;;36.90;;
68188;SDS011;66299;47.514;19.218;2024-03-08T04:46:00;77.63;;;38.53;;
68188;SDS011;66299;47.514;19.218;2024-03-08T04:48:30;69.97;;;37.47;;
68188;SDS011;66299;47.514;19.218;2024-03-08T04:51:02;73.15;;;36.95;;
68188;SDS011;66299;47.514;19.218;2024-03-08T04:53:33;75.95;;;37.65;;
68188;SDS011;66299;47.514;19.218;2024-03-08T04:56:01;69.65;;;36.50;;
68188;SDS011;66299;47.514;19.218;2024-03-08T04:58:33;71.88;;;36.60;;
68188;SDS011;66299;47.514;19.218;2024-03-08T05:01:05;76.50;;;38.40;;
68188;SDS011;66299;47.514;19.218;2024-03-08T05:03:38;79.30;;;38.38;;
68188;SDS011;66299;47.514;19.218;2024-03-08T05:06:09;78.80;;;38.00;;
68188;SDS011;66299;47.514;19.218;2024-03-08T05:08:39;71.85;;;36.47;;
68188;SDS011;66299;47.514;19.218;2024-03-08T05:11:08;76.85;;;37.60;;
68188;SDS011;66299;47.514;19.218;2024-03-08T05:13:42;77.50;;;38.08;;
68188;SDS011;66299;47.514;19.218;2024-03-08T05:16:11;75.85;;;37.30;;
68188;SDS011;66299;47.514;19.218;2024-03-08T05:18:42;78.63;;;37.63;;
68188;SDS011;66299;47.514;19.218;2024-03-08T05:21:15;81.00;;;39.17;;
68188;SDS011;66299;47.514;19.218;2024-03-08T05:23:47;77.47;;;38.28;;
68188;SDS011;66299;47.514;19.218;2024-03-08T05:26:17;78.78;;;37.75;;
68188;SDS011;66299;47.514;19.218;2024-03-08T05:28:46;77.40;;;38.72;;
68188;SDS011;66299;47.514;19.218;2024-03-08T05:31:20;78.97;;;39.10;;
68188;SDS011;66299;47.514;19.218;2024-03-08T05:33:50;81.70;;;38.30;;
68188;SDS011;66299;47.514;19.218;2024-03-08T05:36:23;83.50;;;40.20;;
68188;SDS011;66299;47.514;19.218;2024-03-08T05:38:52;81.88;;;39.88;;
68188;SDS011;66299;47.514;19.218;2024-03-08T05:41:21;78.45;;;38.75;;
68188;SDS011;66299;47.514;19.218;2024-03-08T05:43:50;78.63;;;39.25;;
68188;SDS011;66299;47.514;19.218;2024-03-08T05:46:19;81.45;;;39.13;;
68188;SDS011;66299;47.514;19.218;2024-03-08T05:48:49;80.13;;;39.33;;
68188;SDS011;66299;47.514;19.218;2024-03-08T05:51:18;77.90;;;39.38;;
68188;SDS011;66299;47.514;19.218;2024-03-08T05:53:51;73.43;;;38.35;;
68188;SDS011;66299;47.514;19.218;2024-03-08T05:56:20;70.88;;;37.83;;
68188;SDS011;66299;47.514;19.218;2024-03-08T05:58:49;71.70;;;36.90;;
68188;SDS011;66299;47.514;19.218;2024-03-08T06:01:18;73.07;;;37.38;;
68188;SDS011;66299;47.514;19.218;2024-03-08T06:03:48;74.43;;;38.58;;
68188;SDS011;66299;47.514;19.218;2024-03-08T06:06:17;72.38;;;37.83;;
68188;SDS011;66299;47.514;19.218;2024-03-08T06:08:48;75.30;;;39.17;;
68188;SDS011;66299;47.514;19.218;2024-03-08T06:11:19;75.47;;;37.08;;
68188;SDS011;66299;47.514;19.218;2024-03-08T06:13:48;72.97;;;36.53;;
68188;SDS011;66299;47.514;19.218;2024-03-08T06:16:19;76.18;;;37.47;;
68188;SDS011;66299;47.514;19.218;2024-03-08T06:18:48;67.32;;;35.95;;
68188;SDS011;66299;47.514;19.218;2024-03-08T06:21:17;66.70;;;36.45;;
68188;SDS011;66299;47.514;19.218;2024-03-08T06:23:46;68.50;;;36.72;;
68188;SDS011;66299;47.514;19.218;2024-03-08T06:26:18;65.30;;;36.13;;
68188;SDS011;66299;47.514;19.218;2024-03-08T06:28:49;70.68;;;36.85;;
68188;SDS011;66299;47.514;19.218;2024-03-08T06:31:18;71.50;;;38.40;;
68188;SDS011;66299;47.514;19.218;2024-03-08T06:33:47;68.22;;;37.17;;
68188;SDS011;66299;47.514;19.218;2024-03-08T06:36:17;70.53;;;35.97;;
68188;SDS011;66299;47.514;19.218;2024-03-08T06:38:48;71.40;;;37.53;;
68188;SDS011;66299;47.514;19.218;2024-03-08T06:41:18;67.20;;;36.60;;
68188;SDS011;66299;47.514;19.218;2024-03-08T06:43:47;67.65;;;36.38;;
68188;SDS011;66299;47.514;19.218;2024-03-08T06:46:18;67.88;;;36.15;;
68188;SDS011;66299;47.514;19.218;2024-03-08T06:48:48;69.20;;;36.72;;
68188;SDS011;66299;47.514;19.218;2024-03-08T06:51:20;75.22;;;36.67;;
68188;SDS011;66299;47.514;19.218;2024-03-08T06:53:49;68.03;;;36.22;;
68188;SDS011;66299;47.514;19.218;2024-03-08T06:56:21;73.40;;;37.65;;
68188;SDS011;66299;47.514;19.218;2024-03-08T06:58:50;70.75;;;37.08;;
68188;SDS011;66299;47.514;19.218;2024-03-08T07:01:20;67.85;;;36.88;;
68188;SDS011;66299;47.514;19.218;2024-03-08T07:03:49;66.85;;;36.28;;
68188;SDS011;66299;47.514;19.218;2024-03-08T07:06:19;68.53;;;35.33;;
68188;SDS011;66299;47.514;19.218;2024-03-08T07:08:47;64.00;;;34.67;;
68188;SDS011;66299;47.514;19.218;2024-03-08T07:11:17;70.80;;;36.70;;
68188;SDS011;66299;47.514;19.218;2024-03-08T07:13:47;66.35;;;35.30;;
68188;SDS011;66299;47.514;19.218;2024-03-08T07:16:16;64.07;;;34.67;;
68188;SDS011;66299;47.514;19.218;2024-03-08T07:18:45;68.50;;;35.85;;
68188;SDS011;66299;47.514;19.218;2024-03-08T07:21:14;69.20;;;35.13;;
68188;SDS011;66299;47.514;19.218;2024-03-08T07:23:43;65.07;;;34.80;;
68188;SDS011;66299;47.514;19.218;2024-03-08T07:26:30;66.10;;;34.47;;
68188;SDS011;66299;47.514;19.218;2024-03-08T07:29:00;66.47;;;34.20;;
68188;SDS011;66299;47.514;19.218;2024-03-08T07:31:29;64.82;;;34.85;;
68188;SDS011;66299;47.514;19.218;2024-03-08T07:34:11;66.53;;;34.90;;
68188;SDS011;66299;47.514;19.218;2024-03-08T07:36:40;66.28;;;34.55;;
68188;SDS011;66299;47.514;19.218;2024-03-08T07:39:08;69.88;;;34.15;;
68188;SDS011;66299;47.514;19.218;2024-03-08T07:41:40;71.05;;;35.58;;
68188;SDS011;66299;47.514;19.218;2024-03-08T07:44:12;66.63;;;34.25;;
68188;SDS011;66299;47.514;19.218;2024-03-08T07:46:42;68.35;;;35.28;;
68188;SDS011;66299;47.514;19.218;2024-03-08T07:49:12;65.38;;;33.97;;
68188;SDS011;66299;47.514;19.218;2024-03-08T07:51:42;72.10;;;34.63;;
68188;SDS011;66299;47.514;19.218;2024-03-08T07:54:10;66.15;;;34.75;;
68188;SDS011;66299;47.514;19.218;2024-03-08T07:56:40;69.25;;;35.20;;
68188;SDS011;66299;47.514;19.218;2024-03-08T07:59:09;68.07;;;35.15;;
68188;SDS011;66299;47.514;19.218;2024-03-08T08:01:40;70.88;;;35.20;;
68188;SDS011;66299;47.514;19.218;2024-03-08T08:04:08;75.25;;;36.08;;
68188;SDS011;66299;47.514;19.218;2024-03-08T08:06:39;76.00;;;36.00;;
68188;SDS011;66299;47.514;19.218;2024-03-08T08:09:08;73.90;;;35.75;;
68188;SDS011;66299;47.514;19.218;2024-03-08T08:11:41;73.47;;;35.40;;
68188;SDS011;66299;47.514;19.218;2024-03-08T08:14:11;72.25;;;35.55;;
68188;SDS011;66299;47.514;19.218;2024-03-08T08:16:41;74.65;;;36.15;;
68188;SDS011;66299;47.514;19.218;2024-03-08T08:19:11;72.97;;;36.50;;
68188;SDS011;66299;47.514;19.218;2024-03-08T08:21:41;70.00;;;34.72;;
68188;SDS011;66299;47.514;19.218;2024-03-08T08:24:10;73.63;;;35.83;;
68188;SDS011;66299;47.514;19.218;2024-03-08T08:26:38;67.18;;;34.70;;
68188;SDS011;66299;47.514;19.218;2024-03-08T08:29:07;73.13;;;35.20;;
68188;SDS011;66299;47.514;19.218;2024-03-08T08:31:36;72.35;;;36.40;;
68188;SDS011;66299;47.514;19.218;2024-03-08T08:34:08;75.18;;;36.22;;
68188;SDS011;66299;47.514;19.218;2024-03-08T08:36:38;78.05;;;36.72;;
68188;SDS011;66299;47.514;19.218;2024-03-08T08:39:07;74.25;;;35.88;;
68188;SDS011;66299;47.514;19.218;2024-03-08T08:41:41;73.53;;;35.17;;
68188;SDS011;66299;47.514;19.218;2024-03-08T08:44:10;77.38;;;37.53;;
68188;SDS011;66299;47.514;19.218;2024-03-08T08:46:42;74.38;;;35.00;;
68188;SDS011;66299;47.514;19.218;2024-03-08T08:49:13;72.90;;;34.97;;
68188;SDS011;66299;47.514;19.218;2024-03-08T08:51:48;75.28;;;35.58;;
68188;SDS011;66299;47.514;19.218;2024-03-08T08:54:18;71.85;;;33.72;;
68188;SDS011;66299;47.514;19.218;2024-03-08T08:56:47;70.93;;;33.97;;
68188;SDS011;66299;47.514;19.218;2024-03-08T08:59:16;71.18;;;34.50;;
68188;SDS011;66299;47.514;19.218;2024-03-08T09:01:49;71.10;;;34.95;;
68188;SDS011;66299;47.514;19.218;2024-03-08T09:04:22;74.68;;;34.42;;
68188;SDS011;66299;47.514;19.218;2024-03-08T09:06:51;71.95;;;35.58;;
68188;SDS011;66299;47.514;19.218;2024-03-08T09:09:20;72.70;;;35.78;;
68188;SDS011;66299;47.514;19.218;2024-03-08T09:11:49;76.53;;;34.13;;
68188;SDS011;66299;47.514;19.218;2024-03-08T09:14:18;73.47;;;34.45;;
68188;SDS011;66299;47.514;19.218;2024-03-08T09:16:47;67.13;;;32.88;;
68188;SDS011;66299;47.514;19.218;2024-03-08T09:19:15;68.22;;;33.67;;
68188;SDS011;66299;47.514;19.218;2024-03-08T09:21:47;68.38;;;33.80;;
68188;SDS011;66299;47.514;19.218;2024-03-08T09:24:16;63.80;;;32.25;;
68188;SDS011;66299;47.514;19.218;2024-03-08T09:26:44;64.13;;;31.08;;
68188;SDS011;66299;47.514;19.218;2024-03-08T09:29:13;62.53;;;31.27;;
68188;SDS011;66299;47.514;19.218;2024-03-08T09:31:43;60.42;;;30.65;;
68188;SDS011;66299;47.514;19.218;2024-03-08T09:34:13;62.28;;;31.38;;
68188;SDS011;66299;47.514;19.218;2024-03-08T09:36:52;66.07;;;31.17;;
68188;SDS011;66299;47.514;19.218;2024-03-08T09:39:20;60.65;;;30.58;;
68188;SDS011;66299;47.514;19.218;2024-03-08T09:41:53;61.60;;;30.63;;
68188;SDS011;66299;47.514;19.218;2024-03-08T09:44:23;62.47;;;30.50;;
68188;SDS011;66299;47.514;19.218;2024-03-08T09:46:54;60.03;;;30.15;;
68188;SDS011;66299;47.514;19.218;2024-03-08T09:49:25;62.92;;;29.15;;
68188;SDS011;66299;47.514;19.218;2024-03-08T09:51:55;57.78;;;29.52;;
68188;SDS011;66299;47.514;19.218;2024-03-08T09:54:24;55.05;;;29.13;;
68188;SDS011;66299;47.514;19.218;2024-03-08T09:56:54;59.55;;;29.48;;
68188;SDS011;66299;47.514;19.218;2024-03-08T09:59:24;64.07;;;30.73;;
68188;SDS011;66299;47.514;19.218;2024-03-08T10:02:15;60.65;;;29.73;;
68188;SDS011;66299;47.514;19.218;2024-03-08T10:04:46;55.90;;;28.20;;
68188;SDS011;66299;47.514;19.218;2024-03-08T10:07:15;60.50;;;28.40;;
68188;SDS011;66299;47.514;19.218;2024-03-08T10:09:43;58.63;;;28.70;;
68188;SDS011;66299;47.514;19.218;2024-03-08T10:12:17;53.13;;;27.55;;
68188;SDS011;66299;47.514;19.218;2024-03-08T10:14:46;54.75;;;28.17;;
68188;SDS011;66299;47.514;19.218;2024-03-08T10:17:14;55.35;;;27.17;;
68188;SDS011;66299;47.514;19.218;2024-03-08T10:19:50;54.13;;;27.13;;
68188;SDS011;66299;47.514;19.218;2024-03-08T10:22:22;52.38;;;27.73;;
68188;SDS011;66299;47.514;19.218;2024-03-08T10:24:50;52.88;;;27.40;;
68188;SDS011;66299;47.514;19.218;2024-03-08T10:27:19;54.10;;;27.35;;
68188;SDS011;66299;47.514;19.218;2024-03-08T10:29:48;54.72;;;28.45;;
68188;SDS011;66299;47.514;19.218;2024-03-08T10:32:18;53.67;;;27.80;;
68188;SDS011;66299;47.514;19.218;2024-03-08T10:34:47;54.88;;;27.70;;
68188;SDS011;66299;47.514;19.218;2024-03-08T10:37:17;51.92;;;27.80;;
68188;SDS011;66299;47.514;19.218;2024-03-08T10:39:55;50.92;;;27.17;;
68188;SDS011;66299;47.514;19.218;2024-03-08T10:42:40;52.03;;;26.30;;
68188;SDS011;66299;47.514;19.218;2024-03-08T10:45:15;48.15;;;26.25;;
68188;SDS011;66299;47.514;19.218;2024-03-08T10:47:49;47.00;;;25.58;;
68188;SDS011;66299;47.514;19.218;2024-03-08T10:50:26;44.65;;;23.88;;
68188;SDS011;66299;47.514;19.218;2024-03-08T10:52:58;42.33;;;22.58;;
68188;SDS011;66299;47.514;19.218;2024-03-08T10:55:28;46.33;;;25.58;;
68188;SDS011;66299;47.514;19.218;2024-03-08T10:57:59;42.83;;;23.17;;
68188;SDS011;66299;47.514;19.218;2024-03-08T11:00:30;44.67;;;24.05;;
68188;SDS011;66299;47.514;19.218;2024-03-08T11:02:59;46.38;;;23.73;;
68188;SDS011;66299;47.514;19.218;2024-03-08T11:05:35;42.17;;;23.35;;
68188;SDS011;66299;47.514;19.218;2024-03-08T11:08:17;44.42;;;23.80;;
68188;SDS011;66299;47.514;19.218;2024-03-08T11:10:47;44.58;;;24.67;;
68188;SDS011;66299;47.514;19.218;2024-03-08T11:16:06;47.40;;;25.88;;
68188;SDS011;66299;47.514;19.218;2024-03-08T11:18:36;46.85;;;26.08;;
68188;SDS011;66299;47.514;19.218;2024-03-08T11:21:07;46.67;;;25.27;;
68188;SDS011;66299;47.514;19.218;2024-03-08T11:23:41;49.92;;;26.27;;
68188;SDS011;66299;47.514;19.218;2024-03-08T11:26:19;45.45;;;25.52;;
68188;SDS011;66299;47.514;19.218;2024-03-08T11:28:48;45.35;;;25.10;;
68188;SDS011;66299;47.514;19.218;2024-03-08T11:31:22;55.95;;;28.90;;
68188;SDS011;66299;47.514;19.218;2024-03-08T11:33:53;48.88;;;26.15;;
68188;SDS011;66299;47.514;19.218;2024-03-08T11:36:24;45.58;;;26.63;;
68188;SDS011;66299;47.514;19.218;2024-03-08T11:38:54;58.10;;;31.83;;
68188;SDS011;66299;47.514;19.218;2024-03-08T11:41:34;56.05;;;31.38;;
68188;SDS011;66299;47.514;19.218;2024-03-08T11:44:04;56.17;;;31.30;;
68188;SDS011;66299;47.514;19.218;2024-03-08T11:46:34;53.47;;;29.58;;
68188;SDS011;66299;47.514;19.218;2024-03-08T11:49:02;46.65;;;27.90;;
68188;SDS011;66299;47.514;19.218;2024-03-08T11:51:32;49.13;;;27.63;;
68188;SDS011;66299;47.514;19.218;2024-03-08T11:54:03;46.80;;;27.35;;
68188;SDS011;66299;47.514;19.218;2024-03-08T11:56:34;47.72;;;27.25;;
68188;SDS011;66299;47.514;19.218;2024-03-08T11:59:03;45.28;;;25.98;;
68188;SDS011;66299;47.514;19.218;2024-03-08T12:01:32;40.35;;;24.40;;
68188;SDS011;66299;47.514;19.218;2024-03-08T12:04:00;44.70;;;25.83;;
68188;SDS011;66299;47.514;19.218;2024-03-08T12:06:36;41.65;;;24.95;;
68188;SDS011;66299;47.514;19.218;2024-03-08T12:09:09;40.17;;;23.20;;
68188;SDS011;66299;47.514;19.218;2024-03-08T12:11:41;41.35;;;24.92;;
68188;SDS011;66299;47.514;19.218;2024-03-08T12:14:10;36.25;;;22.38;;
68188;SDS011;66299;47.514;19.218;2024-03-08T12:16:39;38.67;;;22.67;;
68188;SDS011;66299;47.514;19.218;2024-03-08T12:19:07;39.10;;;23.38;;
68188;SDS011;66299;47.514;19.218;2024-03-08T12:21:38;39.00;;;23.50;;
68188;SDS011;66299;47.514;19.218;2024-03-08T12:24:18;40.42;;;23.17;;
68188;SDS011;66299;47.514;19.218;2024-03-08T12:26:48;42.38;;;23.92;;
68188;SDS011;66299;47.514;19.218;2024-03-08T12:29:17;38.65;;;23.20;;
68188;SDS011;66299;47.514;19.218;2024-03-08T12:31:50;40.30;;;23.58;;
68188;SDS011;66299;47.514;19.218;2024-03-08T12:34:21;42.17;;;23.38;;
68188;SDS011;66299;47.514;19.218;2024-03-08T12:36:50;39.05;;;23.42;;
68188;SDS011;66299;47.514;19.218;2024-03-08T12:39:23;39.08;;;23.58;;
68188;SDS011;66299;47.514;19.218;2024-03-08T12:41:54;44.35;;;25.25;;
68188;SDS011;66299;47.514;19.218;2024-03-08T12:44:24;48.60;;;26.75;;
68188;SDS011;66299;47.514;19.218;2024-03-08T12:46:55;49.63;;;27.63;;
68188;SDS011;66299;47.514;19.218;2024-03-08T12:49:26;50.97;;;29.92;;
68188;SDS011;66299;47.514;19.218;2024-03-08T12:51:55;53.00;;;30.52;;
68188;SDS011;66299;47.514;19.218;2024-03-08T12:54:25;57.55;;;31.20;;
68188;SDS011;66299;47.514;19.218;2024-03-08T12:56:54;54.55;;;30.77;;
68188;SDS011;66299;47.514;19.218;2024-03-08T12:59:23;53.90;;;30.63;;
68188;SDS011;66299;47.514;19.218;2024-03-08T13:01:53;58.30;;;31.38;;
68188;SDS011;66299;47.514;19.218;2024-03-08T13:04:24;53.60;;;31.13;;
68188;SDS011;66299;47.514;19.218;2024-03-08T13:06:54;59.53;;;32.38;;
68188;SDS011;66299;47.514;19.218;2024-03-08T13:09:22;57.35;;;31.95;;
68188;SDS011;66299;47.514;19.218;2024-03-08T13:11:54;58.80;;;32.42;;
68188;SDS011;66299;47.514;19.218;2024-03-08T13:14:25;54.60;;;31.40;;
68188;SDS011;66299;47.514;19.218;2024-03-08T13:16:54;57.47;;;31.10;;
68188;SDS011;66299;47.514;19.218;2024-03-08T13:19:24;55.70;;;31.05;;
68188;SDS011;66299;47.514;19.218;2024-03-08T13:21:55;53.72;;;30.88;;
68188;SDS011;66299;47.514;19.218;2024-03-08T13:24:25;54.05;;;30.70;;
68188;SDS011;66299;47.514;19.218;2024-03-08T13:26:54;55.50;;;31.15;;
68188;SDS011;66299;47.514;19.218;2024-03-08T13:29:23;53.65;;;30.02;;
68188;SDS011;66299;47.514;19.218;2024-03-08T13:31:52;51.15;;;28.42;;
68188;SDS011;66299;47.514;19.218;2024-03-08T13:34:22;49.08;;;28.00;;
68188;SDS011;66299;47.514;19.218;2024-03-08T13:37:23;52.15;;;28.08;;
68188;SDS011;66299;47.514;19.218;2024-03-08T13:39:53;51.50;;;28.35;;
68188;SDS011;66299;47.514;19.218;2024-03-08T13:42:22;48.60;;;27.13;;
68188;SDS011;66299;47.514;19.218;2024-03-08T13:44:50;47.33;;;27.08;;
68188;SDS011;66299;47.514;19.218;2024-03-08T13:47:19;49.60;;;28.05;;
68188;SDS011;66299;47.514;19.218;2024-03-08T13:49:47;48.25;;;27.15;;
68188;SDS011;66299;47.514;19.218;2024-03-08T13:52:17;50.60;;;28.10;;
68188;SDS011;66299;47.514;19.218;2024-03-08T13:54:47;52.08;;;28.48;;
68188;SDS011;66299;47.514;19.218;2024-03-08T13:57:16;46.92;;;27.42;;
68188;SDS011;66299;47.514;19.218;2024-03-08T13:59:45;52.40;;;27.85;;
68188;SDS011;66299;47.514;19.218;2024-03-08T14:02:14;49.40;;;27.38;;
68188;SDS011;66299;47.514;19.218;2024-03-08T14:04:44;49.47;;;27.52;;
68188;SDS011;66299;47.514;19.218;2024-03-08T14:07:13;53.35;;;27.70;;
68188;SDS011;66299;47.514;19.218;2024-03-08T14:09:44;50.38;;;27.15;;
68188;SDS011;66299;47.514;19.218;2024-03-08T14:12:12;52.45;;;28.05;;
68188;SDS011;66299;47.514;19.218;2024-03-08T14:14:42;53.67;;;27.92;;
68188;SDS011;66299;47.514;19.218;2024-03-08T14:17:11;51.00;;;28.42;;
68188;SDS011;66299;47.514;19.218;2024-03-08T14:19:44;47.97;;;27.48;;
68188;SDS011;66299;47.514;19.218;2024-03-08T14:22:12;53.67;;;29.13;;
68188;SDS011;66299;47.514;19.218;2024-03-08T14:24:42;54.38;;;28.85;;
68188;SDS011;66299;47.514;19.218;2024-03-08T14:27:12;56.83;;;31.33;;
68188;SDS011;66299;47.514;19.218;2024-03-08T14:29:46;59.78;;;33.33;;